createdAt,value
2018-08-10T00:00:58.781Z,23.40
2018-08-10T00:03:39.412Z,23.40
2018-08-10T00:06:20.172Z,23.50
2018-08-10T00:09:01.577Z,23.60
2018-08-10T00:11:42.397Z,23.60
2018-08-10T00:14:22.954Z,23.60
2018-08-10T00:17:03.702Z,23.70
2018-08-10T00:19:45.107Z,23.80
2018-08-10T00:22:25.781Z,23.80
2018-08-10T00:25:06.530Z,23.80
2018-08-10T00:27:48.101Z,23.80
2018-08-10T00:30:28.711Z,23.80
2018-08-10T00:33:09.313Z,23.70
2018-08-10T00:35:49.957Z,23.80
2018-08-10T00:38:30.530Z,23.80
2018-08-10T00:41:11.380Z,23.80
2018-08-10T00:43:52.743Z,23.80
2018-08-10T00:46:33.545Z,23.90
2018-08-10T00:49:14.143Z,23.90
2018-08-10T00:51:54.807Z,23.90
2018-08-10T00:54:35.488Z,23.80
2018-08-10T00:57:16.089Z,23.80
2018-08-10T00:59:56.801Z,23.80
2018-08-10T01:02:37.698Z,23.80
2018-08-10T01:05:18.284Z,23.70
2018-08-10T01:07:59.885Z,23.70
2018-08-10T01:10:41.171Z,23.70
2018-08-10T01:13:22.250Z,23.60
2018-08-10T01:16:02.829Z,23.50
2018-08-10T01:18:44.406Z,23.40
2018-08-10T01:21:25.730Z,23.30
2018-08-10T01:24:06.422Z,23.20
2018-08-10T01:26:47.072Z,23.10
2018-08-10T01:29:27.675Z,23.10
2018-08-10T01:32:09.070Z,23.10
2018-08-10T01:34:49.653Z,23.00
2018-08-10T01:37:30.259Z,22.90
2018-08-10T01:40:11.793Z,22.90
2018-08-10T01:42:52.363Z,23.00
2018-08-10T01:45:32.904Z,23.00
2018-08-10T01:48:14.435Z,22.90
2018-08-10T01:50:55.075Z,23.00
2018-08-10T01:53:35.677Z,23.00
2018-08-10T01:56:17.144Z,22.90
2018-08-10T01:58:57.849Z,22.90
2018-08-10T02:01:38.453Z,22.90
2018-08-10T02:04:19.125Z,22.80
2018-08-10T02:06:59.844Z,22.80
2018-08-10T02:09:41.285Z,22.80
2018-08-10T02:12:22.955Z,22.80
2018-08-10T02:15:04.498Z,22.80
2018-08-10T02:17:45.109Z,22.70
2018-08-10T02:20:26.357Z,22.80
2018-08-10T02:23:07.375Z,22.80
2018-08-10T02:25:48.029Z,22.80
2018-08-10T02:28:29.574Z,22.80
2018-08-10T02:31:10.138Z,22.90
2018-08-10T02:33:50.779Z,22.90
2018-08-10T02:36:32.195Z,22.90
2018-08-10T02:39:13.710Z,23.00
2018-08-10T02:41:54.267Z,23.00
2018-08-10T02:44:35.002Z,23.00
2018-08-10T02:47:20.618Z,23.00
2018-08-10T02:50:02.089Z,23.00
2018-08-10T02:52:43.891Z,23.00
2018-08-10T02:55:24.893Z,23.00
2018-08-10T02:58:05.754Z,23.00
2018-08-10T03:00:47.255Z,23.10
2018-08-10T03:03:28.065Z,23.10
2018-08-10T03:06:09.567Z,23.10
2018-08-10T03:08:51.086Z,23.10
2018-08-10T03:11:32.012Z,23.20
2018-08-10T03:14:12.642Z,23.30
2018-08-10T03:16:54.143Z,23.30
2018-08-10T03:19:34.877Z,23.30
2018-08-10T03:22:15.572Z,23.30
2018-08-10T03:24:56.282Z,23.30
2018-08-10T03:27:37.920Z,23.20
2018-08-10T03:30:18.494Z,23.20
2018-08-10T03:32:59.334Z,23.20
2018-08-10T03:35:39.982Z,23.20
2018-08-10T03:38:20.667Z,23.20
2018-08-10T03:41:02.154Z,23.20
2018-08-10T03:43:42.739Z,23.20
2018-08-10T03:46:23.385Z,23.20
2018-08-10T03:49:03.977Z,23.20
2018-08-10T03:51:45.179Z,23.20
2018-08-10T03:54:26.135Z,23.20
2018-08-10T03:57:07.525Z,23.30
2018-08-10T03:59:49.113Z,23.20
2018-08-10T04:02:30.630Z,23.20
2018-08-10T04:05:12.521Z,23.20
2018-08-10T04:07:53.959Z,23.20
2018-08-10T04:10:34.483Z,23.10
2018-08-10T04:13:15.266Z,23.10
2018-08-10T04:15:55.881Z,23.10
2018-08-10T04:18:36.603Z,23.10
2018-08-10T04:21:17.254Z,23.20
2018-08-10T04:23:57.904Z,23.20
2018-08-10T04:26:38.728Z,23.20
2018-08-10T04:29:19.381Z,23.30
2018-08-10T04:32:00.065Z,23.30
2018-08-10T04:34:40.784Z,23.30
2018-08-10T04:37:21.487Z,23.30
2018-08-10T04:40:03.005Z,23.30
2018-08-10T04:42:44.503Z,23.40
2018-08-10T04:45:25.168Z,23.40
2018-08-10T04:48:05.809Z,23.40
2018-08-10T04:50:47.373Z,23.40
2018-08-10T04:53:28.027Z,23.40
2018-08-10T04:56:09.531Z,23.50
2018-08-10T04:58:50.145Z,23.50
2018-08-10T05:01:30.833Z,23.50
2018-08-10T05:04:11.427Z,23.40
2018-08-10T05:06:52.279Z,23.40
2018-08-10T05:09:33.825Z,23.40
2018-08-10T05:12:14.384Z,23.40
2018-08-10T05:14:55.028Z,23.40
2018-08-10T05:17:37.807Z,23.40
2018-08-10T05:20:19.165Z,23.30
2018-08-10T05:22:59.904Z,23.30
2018-08-10T05:25:41.451Z,23.30
2018-08-10T05:28:21.958Z,23.30
2018-08-10T05:31:03.082Z,23.30
2018-08-10T05:33:44.446Z,23.30
2018-08-10T05:36:25.170Z,23.30
2018-08-10T05:39:06.622Z,23.20
2018-08-10T05:41:47.359Z,23.20
2018-08-10T05:44:28.041Z,23.30
2018-08-10T05:47:08.986Z,23.30
2018-08-10T05:49:50.196Z,23.30
2018-08-10T05:52:31.316Z,23.40
2018-08-10T05:55:12.523Z,23.40
2018-08-10T05:57:53.636Z,23.50
2018-08-10T06:00:35.125Z,23.70
2018-08-10T06:03:16.610Z,23.80
2018-08-10T06:05:57.173Z,24.00
2018-08-10T06:08:37.864Z,24.20
2018-08-10T06:11:19.249Z,24.30
2018-08-10T06:14:00.775Z,24.40
2018-08-10T06:16:41.425Z,24.50
2018-08-10T06:19:22.039Z,24.60
2018-08-10T06:22:03.003Z,24.70
2018-08-10T06:24:44.119Z,24.80
2018-08-10T06:27:25.077Z,24.90
2018-08-10T06:30:06.513Z,25.00
2018-08-10T06:32:47.063Z,25.10
2018-08-10T06:35:28.642Z,25.20
2018-08-10T06:38:09.265Z,25.20
2018-08-10T06:40:50.713Z,25.20
2018-08-10T06:43:31.350Z,25.30
2018-08-10T06:46:12.887Z,25.20
2018-08-10T06:48:54.352Z,25.30
2018-08-10T06:51:34.949Z,25.30
2018-08-10T06:54:15.629Z,25.40
2018-08-10T06:56:57.119Z,25.50
2018-08-10T06:59:38.041Z,25.60
2018-08-10T07:02:18.710Z,25.70
2018-08-10T07:04:59.593Z,26.00
2018-08-10T07:07:41.028Z,26.10
2018-08-10T07:10:21.582Z,26.10
2018-08-10T07:13:02.463Z,26.20
2018-08-10T07:15:43.208Z,26.20
2018-08-10T07:18:23.737Z,26.30
2018-08-10T07:21:04.500Z,26.40
2018-08-10T07:23:45.042Z,26.40
2018-08-10T07:26:25.876Z,26.50
2018-08-10T07:29:06.673Z,26.60
2018-08-10T07:31:47.295Z,26.60
2018-08-10T07:34:27.883Z,26.70
2018-08-10T07:37:08.538Z,26.70
2018-08-10T07:39:49.178Z,26.80
2018-08-10T07:42:31.153Z,26.90
2018-08-10T07:45:12.401Z,27.00
2018-08-10T07:47:52.990Z,27.20
2018-08-10T07:50:33.630Z,27.30
2018-08-10T07:53:14.203Z,27.50
2018-08-10T07:55:54.960Z,27.60
2018-08-10T07:58:36.328Z,27.80
2018-08-10T08:01:17.210Z,27.90
2018-08-10T08:03:58.087Z,28.00
2018-08-10T08:06:39.619Z,28.00
2018-08-10T08:09:20.297Z,28.10
2018-08-10T08:12:01.028Z,28.20
2018-08-10T08:14:41.705Z,28.30
2018-08-10T08:17:23.166Z,28.40
2018-08-10T08:20:03.886Z,28.50
2018-08-10T08:22:44.532Z,28.60
2018-08-10T08:25:26.171Z,28.80
2018-08-10T08:28:07.598Z,29.20
2018-08-10T08:30:48.221Z,29.60
2018-08-10T08:33:29.422Z,30.00
2018-08-10T08:36:10.587Z,30.40
2018-08-10T08:38:52.185Z,30.70
2018-08-10T08:41:32.810Z,31.00
2018-08-10T08:44:14.385Z,31.00
2018-08-10T08:46:55.879Z,31.10
2018-08-10T08:49:36.980Z,31.20
2018-08-10T08:52:18.124Z,31.10
2018-08-10T08:54:58.856Z,31.00
2018-08-10T08:57:39.525Z,31.00
2018-08-10T09:00:21.579Z,30.90
2018-08-10T09:03:03.194Z,30.80
2018-08-10T09:05:44.204Z,30.70
2018-08-10T09:08:25.023Z,30.60
2018-08-10T09:11:06.742Z,30.60
2018-08-10T09:13:48.937Z,30.60
2018-08-10T09:16:30.063Z,30.50
2018-08-10T09:19:10.625Z,30.50
2018-08-10T09:21:51.585Z,30.50
2018-08-10T09:24:32.195Z,30.50
2018-08-10T09:27:13.103Z,30.60
2018-08-10T09:29:53.646Z,30.70
2018-08-10T09:32:34.219Z,30.80
2018-08-10T09:35:15.486Z,31.00
2018-08-10T09:37:56.486Z,31.00
2018-08-10T09:40:37.198Z,31.00
2018-08-10T09:43:18.751Z,30.90
2018-08-10T09:45:59.972Z,30.80
2018-08-10T09:48:41.581Z,30.80
2018-08-10T09:51:22.896Z,30.80
2018-08-10T09:54:04.836Z,30.90
2018-08-10T09:56:45.985Z,30.90
2018-08-10T09:59:26.792Z,31.00
2018-08-10T10:02:09.486Z,31.00
2018-08-10T10:04:50.209Z,31.00
2018-08-10T10:07:30.835Z,31.10
2018-08-10T10:10:12.394Z,31.10
2018-08-10T10:12:53.122Z,31.00
2018-08-10T10:15:33.876Z,31.00
2018-08-10T10:18:15.586Z,31.00
2018-08-10T10:20:56.208Z,30.80
2018-08-10T10:23:36.744Z,30.80
2018-08-10T10:26:17.341Z,30.80
2018-08-10T10:28:58.463Z,30.90
2018-08-10T10:31:40.009Z,30.90
2018-08-10T10:34:20.597Z,30.80
2018-08-10T10:37:01.530Z,30.80
2018-08-10T10:39:42.076Z,30.90
2018-08-10T10:42:23.236Z,30.90
2018-08-10T10:45:04.326Z,30.90
2018-08-10T10:47:46.172Z,30.90
2018-08-10T10:50:27.724Z,30.90
2018-08-10T10:53:08.359Z,30.90
2018-08-10T10:55:49.010Z,31.00
2018-08-10T10:58:30.519Z,31.00
2018-08-10T11:01:11.175Z,31.10
2018-08-10T11:03:51.857Z,31.30
2018-08-10T11:06:32.397Z,31.50
2018-08-10T11:09:13.001Z,31.70
2018-08-10T11:11:53.690Z,31.80
2018-08-10T11:14:35.298Z,31.80
2018-08-10T11:17:16.842Z,31.80
2018-08-10T11:19:57.668Z,31.80
2018-08-10T11:22:39.836Z,31.70
2018-08-10T11:25:20.896Z,31.60
2018-08-10T11:28:01.727Z,31.60
2018-08-10T11:30:43.630Z,31.60
2018-08-10T11:33:25.006Z,31.50
2018-08-10T11:36:06.469Z,31.50
2018-08-10T11:38:47.152Z,31.50
2018-08-10T11:41:27.739Z,31.60
2018-08-10T11:44:08.794Z,31.70
2018-08-10T11:46:50.053Z,31.80
2018-08-10T11:49:30.647Z,31.80
2018-08-10T11:52:11.473Z,31.80
2018-08-10T11:54:52.759Z,31.70
2018-08-10T11:57:34.034Z,31.60
2018-08-10T12:00:16.512Z,31.60
2018-08-10T12:02:57.151Z,31.50
2018-08-10T12:05:37.892Z,31.40
2018-08-10T12:08:19.125Z,31.20
2018-08-10T12:11:00.174Z,31.20
2018-08-10T12:13:41.123Z,31.20
2018-08-10T12:16:22.517Z,31.20
2018-08-10T12:19:03.962Z,31.20
2018-08-10T12:21:44.682Z,31.10
2018-08-10T12:24:26.065Z,31.00
2018-08-10T12:27:06.908Z,31.00
2018-08-10T12:29:48.482Z,31.10
2018-08-10T12:32:29.938Z,31.10
2018-08-10T12:35:10.773Z,31.00
2018-08-10T12:37:52.054Z,31.10
2018-08-10T12:40:33.616Z,31.10
2018-08-10T12:43:14.394Z,31.20
2018-08-10T12:45:55.645Z,31.30
2018-08-10T12:48:37.135Z,31.40
2018-08-10T12:51:17.875Z,31.30
2018-08-10T12:53:58.858Z,31.30
2018-08-10T12:56:39.565Z,31.10
2018-08-10T12:59:20.251Z,30.90
2018-08-10T13:02:01.118Z,30.70
2018-08-10T13:04:41.926Z,30.60
2018-08-10T13:07:22.689Z,30.50
2018-08-10T13:10:04.220Z,30.60
2018-08-10T13:12:45.786Z,30.60
2018-08-10T13:15:26.426Z,30.70
2018-08-10T13:18:07.090Z,30.60
2018-08-10T13:20:47.735Z,30.60
2018-08-10T13:23:28.444Z,30.60
2018-08-10T13:26:09.156Z,30.50
2018-08-10T13:28:50.649Z,30.20
2018-08-10T13:31:32.172Z,30.10
2018-08-10T13:34:13.062Z,30.10
2018-08-10T13:36:53.706Z,30.10
2018-08-10T13:39:34.424Z,29.90
2018-08-10T13:42:15.218Z,29.80
2018-08-10T13:44:55.776Z,29.80
2018-08-10T13:47:36.468Z,29.70
2018-08-10T13:50:17.239Z,29.50
2018-08-10T13:52:58.006Z,29.40
2018-08-10T13:55:38.811Z,29.40
2018-08-10T13:58:20.260Z,29.50
2018-08-10T14:01:00.984Z,29.40
2018-08-10T14:03:41.708Z,29.30
2018-08-10T14:06:22.623Z,29.30
2018-08-10T14:09:04.883Z,29.00
2018-08-10T14:11:45.871Z,28.90
2018-08-10T14:14:26.677Z,28.70
2018-08-10T14:17:07.279Z,28.60
2018-08-10T14:19:47.890Z,28.50
2018-08-10T14:22:28.813Z,28.40
2018-08-10T14:25:10.167Z,28.30
2018-08-10T14:27:50.926Z,28.10
2018-08-10T14:30:32.409Z,28.10
2018-08-10T14:33:13.093Z,28.00
2018-08-10T14:35:53.709Z,28.10
2018-08-10T14:38:34.934Z,28.00
2018-08-10T14:41:15.916Z,27.90
2018-08-10T14:43:56.644Z,28.00
2018-08-10T14:46:37.603Z,28.00
2018-08-10T14:49:18.921Z,28.00
2018-08-10T14:52:00.446Z,28.10
2018-08-10T14:54:42.049Z,28.30
2018-08-10T14:57:23.547Z,28.40
2018-08-10T15:00:05.148Z,28.30
2018-08-10T15:02:46.983Z,28.40
2018-08-10T15:05:28.946Z,28.40
2018-08-10T15:08:09.949Z,28.40
2018-08-10T15:10:50.660Z,28.40
2018-08-10T15:13:32.122Z,28.40
2018-08-10T15:16:12.746Z,28.40
2018-08-10T15:18:53.454Z,28.50
2018-08-10T15:21:34.094Z,28.40
2018-08-10T15:24:44.773Z,28.40
2018-08-10T15:27:26.133Z,28.50
2018-08-10T15:30:06.822Z,28.50
2018-08-10T15:32:48.232Z,28.40
2018-08-10T15:35:28.813Z,28.20
2018-08-10T15:38:09.460Z,28.20
2018-08-10T15:40:50.089Z,28.20
2018-08-10T15:43:32.152Z,28.30
2018-08-10T15:46:13.347Z,28.20
2018-08-10T15:48:54.922Z,28.10
2018-08-10T15:51:36.357Z,27.90
2018-08-10T15:54:18.229Z,27.60
2018-08-10T15:56:59.262Z,27.40
2018-08-10T15:59:40.791Z,27.40
2018-08-10T16:02:21.399Z,27.30
2018-08-10T16:05:02.886Z,27.30
2018-08-10T16:07:44.283Z,27.30
2018-08-10T16:10:25.917Z,27.30
2018-08-10T16:13:06.746Z,27.20
2018-08-10T16:15:48.318Z,27.20
2018-08-10T16:18:28.886Z,27.30
2018-08-10T16:21:10.337Z,27.30
2018-08-10T16:23:51.826Z,27.30
2018-08-10T16:26:32.496Z,27.30
2018-08-10T16:29:13.965Z,27.20
2018-08-10T16:31:54.668Z,27.00
2018-08-10T16:34:36.242Z,26.80
2018-08-10T16:37:17.781Z,26.70
2018-08-10T16:39:59.288Z,26.70
2018-08-10T16:42:41.463Z,26.50
2018-08-10T16:45:22.232Z,26.50
2018-08-10T16:48:04.149Z,26.50
2018-08-10T16:50:45.042Z,26.30
2018-08-10T16:53:26.434Z,26.20
2018-08-10T16:56:07.083Z,26.20
2018-08-10T16:58:48.571Z,26.20
2018-08-10T17:01:30.237Z,26.00
2018-08-10T17:04:11.670Z,26.00
2018-08-10T17:06:53.169Z,25.90
2018-08-10T17:09:33.721Z,25.90
2018-08-10T17:12:14.362Z,25.80
2018-08-10T17:14:55.902Z,25.80
2018-08-10T17:17:37.447Z,25.70
2018-08-10T17:20:18.863Z,25.80
2018-08-10T17:22:59.611Z,25.80
2018-08-10T17:25:40.205Z,25.80
2018-08-10T17:28:20.904Z,25.80
2018-08-10T17:31:02.480Z,25.70
2018-08-10T17:33:44.083Z,25.70
2018-08-10T17:36:24.749Z,25.70
2018-08-10T17:39:05.358Z,25.70
2018-08-10T17:41:46.307Z,25.70
2018-08-10T17:44:27.352Z,25.70
2018-08-10T17:47:08.774Z,25.60
2018-08-10T17:49:49.351Z,25.60
2018-08-10T17:52:29.932Z,25.60
2018-08-10T17:55:10.582Z,25.60
2018-08-10T17:57:51.124Z,25.70
2018-08-10T18:00:31.953Z,25.60
2018-08-10T18:03:13.226Z,25.60
2018-08-10T18:05:54.297Z,25.60
2018-08-10T18:08:35.774Z,25.60
2018-08-10T18:11:17.204Z,25.60
2018-08-10T18:13:58.861Z,25.60
2018-08-10T18:16:40.333Z,25.60
2018-08-10T18:19:21.774Z,25.60
2018-08-10T18:22:03.320Z,25.50
2018-08-10T18:24:44.798Z,25.40
2018-08-10T18:27:25.487Z,25.40
2018-08-10T18:30:06.038Z,25.30
2018-08-10T18:32:48.038Z,25.30
2018-08-10T18:35:29.135Z,25.20
2018-08-10T18:38:09.729Z,25.20
2018-08-10T18:40:50.325Z,25.20
2018-08-10T18:43:31.832Z,25.20
2018-08-10T18:46:12.558Z,25.10
2018-08-10T18:48:54.060Z,25.10
2018-08-10T18:51:35.698Z,25.00
2018-08-10T18:54:17.083Z,25.00
2018-08-10T18:56:57.895Z,25.00
2018-08-10T18:59:39.389Z,25.00
2018-08-10T19:02:20.865Z,25.00
2018-08-10T19:05:02.398Z,25.00
2018-08-10T19:07:44.053Z,25.00
2018-08-10T19:10:26.854Z,25.00
2018-08-10T19:13:07.894Z,25.10
2018-08-10T19:15:49.459Z,25.10
2018-08-10T19:18:31.362Z,25.10
2018-08-10T19:21:12.441Z,25.10
2018-08-10T19:23:53.092Z,25.00
2018-08-10T19:26:34.385Z,25.00
2018-08-10T19:29:15.020Z,24.90
2018-08-10T19:31:55.706Z,24.90
2018-08-10T19:34:36.295Z,24.90
2018-08-10T19:37:17.044Z,24.90
2018-08-10T19:39:58.655Z,24.90
2018-08-10T19:42:40.180Z,25.00
2018-08-10T19:45:21.526Z,25.00
2018-08-10T19:48:02.206Z,24.90
2018-08-10T19:50:42.930Z,24.90
2018-08-10T19:53:24.439Z,24.90
2018-08-10T19:56:05.149Z,24.90
2018-08-10T19:58:47.096Z,24.90
2018-08-10T20:01:28.541Z,24.90
2018-08-10T20:04:09.195Z,24.90
2018-08-10T20:06:50.687Z,24.90
2018-08-10T20:09:32.278Z,24.80
2018-08-10T20:12:14.706Z,24.90
2018-08-10T20:14:56.057Z,24.90
2018-08-10T20:17:37.085Z,24.90
2018-08-10T20:20:19.058Z,24.90
2018-08-10T20:22:59.980Z,24.80
2018-08-10T20:25:41.504Z,24.80
2018-08-10T20:28:22.107Z,24.70
2018-08-10T20:31:03.690Z,24.70
2018-08-10T20:33:44.240Z,24.60
2018-08-10T20:36:24.877Z,24.60
2018-08-10T20:39:05.435Z,24.60
2018-08-10T20:41:46.068Z,24.50
2018-08-10T20:44:26.697Z,24.50
2018-08-10T20:47:08.282Z,24.50
2018-08-10T20:49:49.820Z,24.50
2018-08-10T20:52:30.644Z,24.40
2018-08-10T20:55:12.122Z,24.40
2018-08-10T20:57:54.096Z,24.30
2018-08-10T21:00:35.209Z,24.30
2018-08-10T21:03:16.727Z,24.20
2018-08-10T21:05:58.350Z,24.20
2018-08-10T21:08:39.624Z,24.20
2018-08-10T21:11:20.433Z,24.10
2018-08-10T21:14:01.903Z,24.10
2018-08-10T21:16:42.474Z,24.00
2018-08-10T21:19:23.171Z,24.00
2018-08-10T21:22:04.646Z,23.90
2018-08-10T21:24:46.201Z,23.90
2018-08-10T21:27:26.815Z,23.90
2018-08-10T21:30:07.485Z,23.90
2018-08-10T21:32:49.638Z,23.90
2018-08-10T21:35:30.422Z,23.90
2018-08-10T21:38:11.034Z,23.90
2018-08-10T21:40:52.413Z,23.90
2018-08-10T21:43:33.938Z,23.90
2018-08-10T21:46:15.374Z,23.90
2018-08-10T21:48:56.058Z,23.90
2018-08-10T21:51:37.484Z,24.00
2018-08-10T21:54:19.514Z,24.10
2018-08-10T21:57:00.570Z,24.10
2018-08-10T21:59:41.203Z,24.20
2018-08-10T22:02:21.976Z,24.30
2018-08-10T22:05:03.621Z,24.30
2018-08-10T22:07:44.155Z,24.30
2018-08-10T22:10:24.738Z,24.40
2018-08-10T22:13:05.326Z,24.40
2018-08-10T22:15:50.946Z,24.40
2018-08-10T22:18:37.604Z,24.40
2018-08-10T22:21:18.882Z,24.40
2018-08-10T22:24:00.393Z,24.40
2018-08-10T22:26:41.179Z,24.40
2018-08-10T22:29:22.591Z,24.40
2018-08-10T22:32:04.118Z,24.30
2018-08-10T22:34:44.813Z,24.20
2018-08-10T22:37:26.406Z,24.20
2018-08-10T22:40:08.261Z,24.20
2018-08-10T22:42:49.377Z,24.20
2018-08-10T22:45:29.980Z,24.20
2018-08-10T22:48:11.508Z,24.10
2018-08-10T22:50:52.053Z,24.10
2018-08-10T22:53:32.604Z,24.20
2018-08-10T22:56:13.212Z,24.20
2018-08-10T22:58:54.714Z,24.20
2018-08-10T23:01:36.065Z,24.20
2018-08-10T23:04:16.602Z,24.20
2018-08-10T23:06:57.335Z,24.20
2018-08-10T23:09:38.767Z,24.20
2018-08-10T23:12:20.177Z,24.10
2018-08-10T23:15:00.809Z,24.10
2018-08-10T23:17:41.923Z,24.10
2018-08-10T23:20:23.151Z,24.10
2018-08-10T23:23:04.663Z,24.10
2018-08-10T23:25:46.199Z,24.10
2018-08-10T23:28:26.805Z,24.10
2018-08-10T23:31:08.330Z,24.00
2018-08-10T23:33:48.917Z,24.00
2018-08-10T23:36:29.574Z,24.00
2018-08-10T23:39:12.310Z,24.00
2018-08-10T23:41:53.640Z,24.00
2018-08-10T23:44:34.177Z,24.00
2018-08-10T23:47:14.821Z,23.90
2018-08-10T23:49:56.338Z,23.90
2018-08-10T23:52:36.956Z,23.80
2018-08-10T23:55:18.440Z,23.80
2018-08-10T23:58:00.015Z,23.80
